sensor_id;sensor_type;location;lat;lon;timestamp;temperature;humidity
14614;DHT22;7393;51.446;6.800;2024-01-15T00:00:52;1.50;1.00
14614;DHT22;7393;51.446;6.800;2024-01-15T00:03:20;1.50;1.00
14614;DHT22;7393;51.446;6.800;2024-01-15T00:05:47;1.50;1.00
14614;DHT22;7393;51.446;6.800;2024-01-15T00:08:14;1.50;1.00
14614;DHT22;7393;51.446;6.800;2024-01-15T00:10:41;1.40;1.00
14614;DHT22;7393;51.446;6.800;2024-01-15T00:13:08;1.50;1.00
14614;DHT22;7393;51.446;6.800;2024-01-15T00:15:35;1.50;1.00
14614;DHT22;7393;51.446;6.800;2024-01-15T00:18:01;1.40;1.00
14614;DHT22;7393;51.446;6.800;2024-01-15T00:20:29;1.50;1.00
14614;DHT22;7393;51.446;6.800;2024-01-15T00:22:56;1.50;1.00
14614;DHT22;7393;51.446;6.800;2024-01-15T00:25:23;1.40;1.00
14614;DHT22;7393;51.446;6.800;2024-01-15T00:27:50;1.40;1.00
14614;DHT22;7393;51.446;6.800;2024-01-15T00:30:17;1.50;1.00
14614;DHT22;7393;51.446;6.800;2024-01-15T00:32:43;1.50;1.00
14614;DHT22;7393;51.446;6.800;2024-01-15T00:35:10;1.50;1.00
14614;DHT22;7393;51.446;6.800;2024-01-15T00:37:39;1.50;1.00
14614;DHT22;7393;51.446;6.800;2024-01-15T00:40:07;1.50;1.00
14614;DHT22;7393;51.446;6.800;2024-01-15T00:42:34;1.60;1.00
14614;DHT22;7393;51.446;6.800;2024-01-15T00:45:01;1.60;1.00
14614;DHT22;7393;51.446;6.800;2024-01-15T00:47:28;1.60;1.00
14614;DHT22;7393;51.446;6.800;2024-01-15T00:49:54;1.70;1.00
14614;DHT22;7393;51.446;6.800;2024-01-15T00:52:21;1.60;1.00
14614;DHT22;7393;51.446;6.800;2024-01-15T00:54:49;1.70;1.00
14614;DHT22;7393;51.446;6.800;2024-01-15T00:57:16;1.70;1.00
14614;DHT22;7393;51.446;6.800;2024-01-15T00:59:44;1.70;1.00
14614;DHT22;7393;51.446;6.800;2024-01-15T01:02:11;1.70;1.00
14614;DHT22;7393;51.446;6.800;2024-01-15T01:04:38;1.70;1.00
14614;DHT22;7393;51.446;6.800;2024-01-15T01:07:04;1.70;1.00
14614;DHT22;7393;51.446;6.800;2024-01-15T01:09:31;1.60;1.00
14614;DHT22;7393;51.446;6.800;2024-01-15T01:12:00;1.70;1.00
14614;DHT22;7393;51.446;6.800;2024-01-15T01:14:26;1.70;1.00
14614;DHT22;7393;51.446;6.800;2024-01-15T01:16:53;1.60;1.00
14614;DHT22;7393;51.446;6.800;2024-01-15T01:19:20;1.60;1.00
14614;DHT22;7393;51.446;6.800;2024-01-15T01:21:46;1.60;1.00
14614;DHT22;7393;51.446;6.800;2024-01-15T01:24:13;1.60;1.00
14614;DHT22;7393;51.446;6.800;2024-01-15T01:26:40;1.60;1.00
14614;DHT22;7393;51.446;6.800;2024-01-15T01:29:08;1.60;1.00
14614;DHT22;7393;51.446;6.800;2024-01-15T01:31:35;1.60;1.00
14614;DHT22;7393;51.446;6.800;2024-01-15T01:34:02;1.60;1.00
14614;DHT22;7393;51.446;6.800;2024-01-15T01:36:28;1.60;1.00
14614;DHT22;7393;51.446;6.800;2024-01-15T01:38:57;1.70;1.00
14614;DHT22;7393;51.446;6.800;2024-01-15T01:41:24;1.60;1.00
14614;DHT22;7393;51.446;6.800;2024-01-15T01:43:51;1.60;1.00
14614;DHT22;7393;51.446;6.800;2024-01-15T01:46:19;1.70;1.00
14614;DHT22;7393;51.446;6.800;2024-01-15T01:48:46;1.60;1.00
14614;DHT22;7393;51.446;6.800;2024-01-15T01:51:14;1.60;1.00
14614;DHT22;7393;51.446;6.800;2024-01-15T01:53:43;1.60;1.00
14614;DHT22;7393;51.446;6.800;2024-01-15T01:56:12;1.60;1.00
14614;DHT22;7393;51.446;6.800;2024-01-15T01:58:39;1.60;1.00
14614;DHT22;7393;51.446;6.800;2024-01-15T02:01:06;1.70;1.00
14614;DHT22;7393;51.446;6.800;2024-01-15T02:03:35;1.70;1.00
14614;DHT22;7393;51.446;6.800;2024-01-15T02:06:02;1.70;1.00
14614;DHT22;7393;51.446;6.800;2024-01-15T02:08:29;1.70;1.00
14614;DHT22;7393;51.446;6.800;2024-01-15T02:10:56;1.70;1.00
14614;DHT22;7393;51.446;6.800;2024-01-15T02:13:23;1.70;1.00
14614;DHT22;7393;51.446;6.800;2024-01-15T02:15:50;1.70;1.00
14614;DHT22;7393;51.446;6.800;2024-01-15T02:18:17;1.70;1.00
14614;DHT22;7393;51.446;6.800;2024-01-15T02:20:45;1.70;1.00
14614;DHT22;7393;51.446;6.800;2024-01-15T02:23:14;1.70;1.00
14614;DHT22;7393;51.446;6.800;2024-01-15T02:25:42;1.70;1.00
14614;DHT22;7393;51.446;6.800;2024-01-15T02:28:11;1.70;1.00
14614;DHT22;7393;51.446;6.800;2024-01-15T02:30:39;1.70;1.00
14614;DHT22;7393;51.446;6.800;2024-01-15T02:33:06;1.70;1.00
14614;DHT22;7393;51.446;6.800;2024-01-15T02:35:33;1.70;1.00
14614;DHT22;7393;51.446;6.800;2024-01-15T02:38:02;1.70;1.00
14614;DHT22;7393;51.446;6.800;2024-01-15T02:40:30;1.80;1.00
14614;DHT22;7393;51.446;6.800;2024-01-15T02:42:57;1.70;1.00
14614;DHT22;7393;51.446;6.800;2024-01-15T02:45:24;1.80;1.00
14614;DHT22;7393;51.446;6.800;2024-01-15T02:47:50;1.80;1.00
14614;DHT22;7393;51.446;6.800;2024-01-15T02:50:17;1.80;1.00
14614;DHT22;7393;51.446;6.800;2024-01-15T02:52:44;1.80;1.00
14614;DHT22;7393;51.446;6.800;2024-01-15T02:55:11;1.80;1.00
14614;DHT22;7393;51.446;6.800;2024-01-15T02:57:39;1.80;1.00
14614;DHT22;7393;51.446;6.800;2024-01-15T03:00:07;1.80;1.00
14614;DHT22;7393;51.446;6.800;2024-01-15T03:02:38;1.80;1.00
14614;DHT22;7393;51.446;6.800;2024-01-15T03:05:06;1.80;1.00
14614;DHT22;7393;51.446;6.800;2024-01-15T03:07:33;1.80;1.00
14614;DHT22;7393;51.446;6.800;2024-01-15T03:10:00;1.80;1.00
14614;DHT22;7393;51.446;6.800;2024-01-15T03:12:27;1.80;1.00
14614;DHT22;7393;51.446;6.800;2024-01-15T03:14:55;1.90;99.90
14614;DHT22;7393;51.446;6.800;2024-01-15T03:17:22;1.90;99.90
14614;DHT22;7393;51.446;6.800;2024-01-15T03:19:49;1.80;99.90
14614;DHT22;7393;51.446;6.800;2024-01-15T03:22:16;1.80;99.90
14614;DHT22;7393;51.446;6.800;2024-01-15T03:24:43;1.90;99.90
14614;DHT22;7393;51.446;6.800;2024-01-15T03:27:10;1.80;99.90
14614;DHT22;7393;51.446;6.800;2024-01-15T03:29:37;1.80;99.90
14614;DHT22;7393;51.446;6.800;2024-01-15T03:32:05;1.80;99.90
14614;DHT22;7393;51.446;6.800;2024-01-15T03:34:32;1.80;99.90
14614;DHT22;7393;51.446;6.800;2024-01-15T03:36:59;1.80;99.90
14614;DHT22;7393;51.446;6.800;2024-01-15T03:39:25;1.80;99.90
14614;DHT22;7393;51.446;6.800;2024-01-15T03:41:52;1.80;99.90
14614;DHT22;7393;51.446;6.800;2024-01-15T03:44:19;1.70;99.90
14614;DHT22;7393;51.446;6.800;2024-01-15T03:46:46;1.80;1.00
14614;DHT22;7393;51.446;6.800;2024-01-15T03:49:14;1.80;99.90
14614;DHT22;7393;51.446;6.800;2024-01-15T03:51:40;1.80;99.90
14614;DHT22;7393;51.446;6.800;2024-01-15T03:54:07;1.80;1.00
14614;DHT22;7393;51.446;6.800;2024-01-15T03:56:34;1.80;99.90
14614;DHT22;7393;51.446;6.800;2024-01-15T03:59:01;1.90;99.90
14614;DHT22;7393;51.446;6.800;2024-01-15T04:01:27;1.80;99.90
14614;DHT22;7393;51.446;6.800;2024-01-15T04:03:55;1.80;99.90
14614;DHT22;7393;51.446;6.800;2024-01-15T04:06:23;1.80;99.90
14614;DHT22;7393;51.446;6.800;2024-01-15T04:08:50;1.90;99.90
14614;DHT22;7393;51.446;6.800;2024-01-15T04:11:17;1.90;99.90
14614;DHT22;7393;51.446;6.800;2024-01-15T04:13:43;1.80;99.90
14614;DHT22;7393;51.446;6.800;2024-01-15T04:16:10;1.90;99.90
14614;DHT22;7393;51.446;6.800;2024-01-15T04:18:37;1.90;99.90
14614;DHT22;7393;51.446;6.800;2024-01-15T04:21:04;1.90;99.90
14614;DHT22;7393;51.446;6.800;2024-01-15T04:23:33;1.90;99.90
14614;DHT22;7393;51.446;6.800;2024-01-15T04:26:00;1.80;99.90
14614;DHT22;7393;51.446;6.800;2024-01-15T04:28:27;1.90;99.90
14614;DHT22;7393;51.446;6.800;2024-01-15T04:30:54;1.90;99.90
14614;DHT22;7393;51.446;6.800;2024-01-15T04:33:20;1.90;99.90
14614;DHT22;7393;51.446;6.800;2024-01-15T04:35:48;1.80;99.90
14614;DHT22;7393;51.446;6.800;2024-01-15T04:38:15;1.80;99.90
14614;DHT22;7393;51.446;6.800;2024-01-15T04:40:43;1.80;99.90
14614;DHT22;7393;51.446;6.800;2024-01-15T04:43:10;1.90;99.90
14614;DHT22;7393;51.446;6.800;2024-01-15T04:45:37;1.80;99.90
14614;DHT22;7393;51.446;6.800;2024-01-15T04:48:04;1.80;99.90
14614;DHT22;7393;51.446;6.800;2024-01-15T04:50:31;1.80;99.90
14614;DHT22;7393;51.446;6.800;2024-01-15T04:52:58;1.90;99.90
14614;DHT22;7393;51.446;6.800;2024-01-15T04:55:24;1.80;99.90
14614;DHT22;7393;51.446;6.800;2024-01-15T04:57:53;1.90;99.90
14614;DHT22;7393;51.446;6.800;2024-01-15T05:00:19;1.80;99.90
14614;DHT22;7393;51.446;6.800;2024-01-15T05:02:46;1.80;99.90
14614;DHT22;7393;51.446;6.800;2024-01-15T05:05:13;1.80;99.90
14614;DHT22;7393;51.446;6.800;2024-01-15T05:07:40;1.80;99.90
14614;DHT22;7393;51.446;6.800;2024-01-15T05:10:07;1.80;99.90
14614;DHT22;7393;51.446;6.800;2024-01-15T05:12:34;1.70;99.90
14614;DHT22;7393;51.446;6.800;2024-01-15T05:15:03;1.80;99.90
14614;DHT22;7393;51.446;6.800;2024-01-15T05:17:30;1.80;99.90
14614;DHT22;7393;51.446;6.800;2024-01-15T05:19:56;1.80;99.90
14614;DHT22;7393;51.446;6.800;2024-01-15T05:22:23;1.80;99.90
14614;DHT22;7393;51.446;6.800;2024-01-15T05:24:50;1.90;99.90
14614;DHT22;7393;51.446;6.800;2024-01-15T05:27:17;1.80;99.90
14614;DHT22;7393;51.446;6.800;2024-01-15T05:29:44;1.90;99.90
14614;DHT22;7393;51.446;6.800;2024-01-15T05:32:12;1.80;99.90
14614;DHT22;7393;51.446;6.800;2024-01-15T05:34:39;1.80;99.90
14614;DHT22;7393;51.446;6.800;2024-01-15T05:37:06;1.80;99.90
14614;DHT22;7393;51.446;6.800;2024-01-15T05:39:32;1.80;99.90
14614;DHT22;7393;51.446;6.800;2024-01-15T05:41:59;1.90;99.90
14614;DHT22;7393;51.446;6.800;2024-01-15T05:44:25;1.80;99.90
14614;DHT22;7393;51.446;6.800;2024-01-15T05:46:53;1.90;99.90
14614;DHT22;7393;51.446;6.800;2024-01-15T05:49:21;1.80;99.90
14614;DHT22;7393;51.446;6.800;2024-01-15T05:51:48;1.80;99.90
14614;DHT22;7393;51.446;6.800;2024-01-15T05:54:14;1.80;99.90
14614;DHT22;7393;51.446;6.800;2024-01-15T05:56:41;1.80;99.90
14614;DHT22;7393;51.446;6.800;2024-01-15T05:59:08;1.80;99.90
14614;DHT22;7393;51.446;6.800;2024-01-15T06:01:35;1.90;99.90
14614;DHT22;7393;51.446;6.800;2024-01-15T06:04:01;1.90;99.90
14614;DHT22;7393;51.446;6.800;2024-01-15T06:06:29;2.00;99.90
14614;DHT22;7393;51.446;6.800;2024-01-15T06:08:57;1.90;99.90
14614;DHT22;7393;51.446;6.800;2024-01-15T06:11:30;2.00;99.90
14614;DHT22;7393;51.446;6.800;2024-01-15T06:13:57;2.00;99.90
14614;DHT22;7393;51.446;6.800;2024-01-15T06:16:24;1.90;99.90
14614;DHT22;7393;51.446;6.800;2024-01-15T06:18:51;2.00;99.90
14614;DHT22;7393;51.446;6.800;2024-01-15T06:21:18;2.00;99.90
14614;DHT22;7393;51.446;6.800;2024-01-15T06:23:46;2.00;99.90
14614;DHT22;7393;51.446;6.800;2024-01-15T06:26:12;2.00;99.90
14614;DHT22;7393;51.446;6.800;2024-01-15T06:28:39;2.00;99.90
14614;DHT22;7393;51.446;6.800;2024-01-15T06:31:06;2.00;99.90
14614;DHT22;7393;51.446;6.800;2024-01-15T06:33:33;2.00;99.90
14614;DHT22;7393;51.446;6.800;2024-01-15T06:36:00;2.10;99.90
14614;DHT22;7393;51.446;6.800;2024-01-15T06:38:27;2.10;1.00
14614;DHT22;7393;51.446;6.800;2024-01-15T06:40:55;2.10;1.00
14614;DHT22;7393;51.446;6.800;2024-01-15T06:43:22;2.10;1.00
14614;DHT22;7393;51.446;6.800;2024-01-15T06:45:48;2.10;1.00
14614;DHT22;7393;51.446;6.800;2024-01-15T06:48:15;2.10;1.00
14614;DHT22;7393;51.446;6.800;2024-01-15T06:50:42;2.10;19.70
14614;DHT22;7393;51.446;6.800;2024-01-15T06:53:09;2.10;1.00
14614;DHT22;7393;51.446;6.800;2024-01-15T06:55:36;2.10;1.00
14614;DHT22;7393;51.446;6.800;2024-01-15T06:58:04;2.10;1.00
14614;DHT22;7393;51.446;6.800;2024-01-15T07:00:31;2.10;1.00
14614;DHT22;7393;51.446;6.800;2024-01-15T07:02:58;2.10;1.00
14614;DHT22;7393;51.446;6.800;2024-01-15T07:05:25;2.10;1.00
14614;DHT22;7393;51.446;6.800;2024-01-15T07:07:51;2.10;1.00
14614;DHT22;7393;51.446;6.800;2024-01-15T07:10:18;2.10;1.00
14614;DHT22;7393;51.446;6.800;2024-01-15T07:12:45;2.20;1.00
14614;DHT22;7393;51.446;6.800;2024-01-15T07:15:14;2.10;1.00
14614;DHT22;7393;51.446;6.800;2024-01-15T07:17:41;2.10;93.40
14614;DHT22;7393;51.446;6.800;2024-01-15T07:20:09;2.10;82.50
14614;DHT22;7393;51.446;6.800;2024-01-15T07:22:36;2.10;1.00
14614;DHT22;7393;51.446;6.800;2024-01-15T07:25:03;2.10;1.00
14614;DHT22;7393;51.446;6.800;2024-01-15T07:27:30;2.10;98.40
14614;DHT22;7393;51.446;6.800;2024-01-15T07:29:57;2.00;99.90
14614;DHT22;7393;51.446;6.800;2024-01-15T07:32:25;2.00;99.90
14614;DHT22;7393;51.446;6.800;2024-01-15T07:34:52;2.00;99.90
14614;DHT22;7393;51.446;6.800;2024-01-15T07:37:19;2.00;99.90
14614;DHT22;7393;51.446;6.800;2024-01-15T07:39:45;2.00;99.90
14614;DHT22;7393;51.446;6.800;2024-01-15T07:42:12;2.00;99.90
14614;DHT22;7393;51.446;6.800;2024-01-15T07:44:39;2.00;99.90
14614;DHT22;7393;51.446;6.800;2024-01-15T07:47:06;1.90;99.90
14614;DHT22;7393;51.446;6.800;2024-01-15T07:49:35;2.00;99.90
14614;DHT22;7393;51.446;6.800;2024-01-15T07:52:02;1.90;99.90
14614;DHT22;7393;51.446;6.800;2024-01-15T07:54:30;2.00;99.90
14614;DHT22;7393;51.446;6.800;2024-01-15T07:56:58;2.00;99.90
14614;DHT22;7393;51.446;6.800;2024-01-15T07:59:25;1.90;99.90
14614;DHT22;7393;51.446;6.800;2024-01-15T08:01:52;1.90;1.00
14614;DHT22;7393;51.446;6.800;2024-01-15T08:04:19;1.90;99.90
14614;DHT22;7393;51.446;6.800;2024-01-15T08:06:48;1.90;99.90
14614;DHT22;7393;51.446;6.800;2024-01-15T08:09:15;1.90;99.90
14614;DHT22;7393;51.446;6.800;2024-01-15T08:11:42;2.00;99.90
14614;DHT22;7393;51.446;6.800;2024-01-15T08:14:10;1.90;99.90
14614;DHT22;7393;51.446;6.800;2024-01-15T08:16:37;1.90;99.90
14614;DHT22;7393;51.446;6.800;2024-01-15T08:19:04;1.90;99.90
14614;DHT22;7393;51.446;6.800;2024-01-15T08:21:31;1.90;99.90
14614;DHT22;7393;51.446;6.800;2024-01-15T08:24:00;1.90;99.90
14614;DHT22;7393;51.446;6.800;2024-01-15T08:26:27;1.80;1.00
14614;DHT22;7393;51.446;6.800;2024-01-15T08:28:54;1.80;1.00
14614;DHT22;7393;51.446;6.800;2024-01-15T08:31:21;1.80;1.00
14614;DHT22;7393;51.446;6.800;2024-01-15T08:33:48;1.80;1.00
14614;DHT22;7393;51.446;6.800;2024-01-15T08:36:15;1.70;1.00
14614;DHT22;7393;51.446;6.800;2024-01-15T08:38:42;1.80;1.00
14614;DHT22;7393;51.446;6.800;2024-01-15T08:41:10;1.80;1.00
14614;DHT22;7393;51.446;6.800;2024-01-15T08:43:37;1.80;1.00
14614;DHT22;7393;51.446;6.800;2024-01-15T08:46:03;1.70;1.00
14614;DHT22;7393;51.446;6.800;2024-01-15T08:48:30;1.70;1.00
14614;DHT22;7393;51.446;6.800;2024-01-15T08:50:57;1.70;1.00
14614;DHT22;7393;51.446;6.800;2024-01-15T08:53:24;1.60;1.00
14614;DHT22;7393;51.446;6.800;2024-01-15T08:55:51;1.60;1.00
14614;DHT22;7393;51.446;6.800;2024-01-15T08:58:19;1.60;1.00
14614;DHT22;7393;51.446;6.800;2024-01-15T09:00:46;1.50;1.00
14614;DHT22;7393;51.446;6.800;2024-01-15T09:03:12;1.50;1.00
14614;DHT22;7393;51.446;6.800;2024-01-15T09:05:39;1.50;1.00
14614;DHT22;7393;51.446;6.800;2024-01-15T09:08:06;1.50;1.00
14614;DHT22;7393;51.446;6.800;2024-01-15T09:10:33;1.50;1.00
14614;DHT22;7393;51.446;6.800;2024-01-15T09:13:00;1.50;1.00
14614;DHT22;7393;51.446;6.800;2024-01-15T09:15:30;1.40;1.00
14614;DHT22;7393;51.446;6.800;2024-01-15T09:17:57;1.40;1.00
14614;DHT22;7393;51.446;6.800;2024-01-15T09:20:24;1.40;1.00
14614;DHT22;7393;51.446;6.800;2024-01-15T09:22:52;1.40;1.00
14614;DHT22;7393;51.446;6.800;2024-01-15T09:25:19;1.40;1.00
14614;DHT22;7393;51.446;6.800;2024-01-15T09:27:46;1.40;1.00
14614;DHT22;7393;51.446;6.800;2024-01-15T09:30:14;1.50;1.00
14614;DHT22;7393;51.446;6.800;2024-01-15T09:32:42;1.50;1.00
14614;DHT22;7393;51.446;6.800;2024-01-15T09:35:09;1.60;1.00
14614;DHT22;7393;51.446;6.800;2024-01-15T09:37:36;1.60;1.00
14614;DHT22;7393;51.446;6.800;2024-01-15T09:40:04;1.60;1.00
14614;DHT22;7393;51.446;6.800;2024-01-15T09:42:32;1.60;1.00
14614;DHT22;7393;51.446;6.800;2024-01-15T09:44:59;1.60;1.00
14614;DHT22;7393;51.446;6.800;2024-01-15T09:47:26;1.70;1.00
14614;DHT22;7393;51.446;6.800;2024-01-15T09:49:54;1.60;1.00
14614;DHT22;7393;51.446;6.800;2024-01-15T09:52:23;1.60;1.00
14614;DHT22;7393;51.446;6.800;2024-01-15T09:54:50;1.70;1.00
14614;DHT22;7393;51.446;6.800;2024-01-15T09:57:18;1.60;1.00
14614;DHT22;7393;51.446;6.800;2024-01-15T09:59:46;1.70;1.00
14614;DHT22;7393;51.446;6.800;2024-01-15T10:02:14;1.60;1.00
14614;DHT22;7393;51.446;6.800;2024-01-15T10:04:44;1.60;1.00
14614;DHT22;7393;51.446;6.800;2024-01-15T10:07:15;1.70;1.00
14614;DHT22;7393;51.446;6.800;2024-01-15T10:09:42;1.60;1.00
14614;DHT22;7393;51.446;6.800;2024-01-15T10:12:10;1.70;1.00
14614;DHT22;7393;51.446;6.800;2024-01-15T10:14:37;1.70;1.00
14614;DHT22;7393;51.446;6.800;2024-01-15T10:17:12;1.70;1.00
14614;DHT22;7393;51.446;6.800;2024-01-15T10:19:39;1.70;1.00
14614;DHT22;7393;51.446;6.800;2024-01-15T10:22:07;1.70;1.00
14614;DHT22;7393;51.446;6.800;2024-01-15T10:24:36;1.70;1.00
14614;DHT22;7393;51.446;6.800;2024-01-15T10:27:06;1.80;1.00
14614;DHT22;7393;51.446;6.800;2024-01-15T10:29:33;1.80;1.00
14614;DHT22;7393;51.446;6.800;2024-01-15T10:32:00;1.80;1.00
14614;DHT22;7393;51.446;6.800;2024-01-15T10:34:28;1.80;1.00
14614;DHT22;7393;51.446;6.800;2024-01-15T10:36:54;1.80;1.00
14614;DHT22;7393;51.446;6.800;2024-01-15T10:39:22;1.90;1.00
14614;DHT22;7393;51.446;6.800;2024-01-15T10:41:50;1.90;99.90
14614;DHT22;7393;51.446;6.800;2024-01-15T10:44:17;1.90;99.90
14614;DHT22;7393;51.446;6.800;2024-01-15T10:46:45;1.90;99.90
14614;DHT22;7393;51.446;6.800;2024-01-15T10:49:12;1.90;99.90
14614;DHT22;7393;51.446;6.800;2024-01-15T10:51:40;1.90;99.90
14614;DHT22;7393;51.446;6.800;2024-01-15T10:54:09;1.90;1.00
14614;DHT22;7393;51.446;6.800;2024-01-15T10:56:37;1.90;99.90
14614;DHT22;7393;51.446;6.800;2024-01-15T10:59:05;1.90;1.00
14614;DHT22;7393;51.446;6.800;2024-01-15T11:01:33;1.90;99.90
14614;DHT22;7393;51.446;6.800;2024-01-15T11:04:00;1.90;99.90
14614;DHT22;7393;51.446;6.800;2024-01-15T11:06:28;1.90;99.90
14614;DHT22;7393;51.446;6.800;2024-01-15T11:09:07;1.90;99.90
14614;DHT22;7393;51.446;6.800;2024-01-15T11:11:35;2.00;1.00
14614;DHT22;7393;51.446;6.800;2024-01-15T11:14:02;1.90;1.00
14614;DHT22;7393;51.446;6.800;2024-01-15T11:16:53;2.00;1.00
14614;DHT22;7393;51.446;6.800;2024-01-15T11:19:21;2.10;99.90
14614;DHT22;7393;51.446;6.800;2024-01-15T11:21:48;2.10;99.90
14614;DHT22;7393;51.446;6.800;2024-01-15T11:24:33;2.10;99.90
14614;DHT22;7393;51.446;6.800;2024-01-15T11:27:00;2.10;99.90
14614;DHT22;7393;51.446;6.800;2024-01-15T11:29:32;2.20;99.90
14614;DHT22;7393;51.446;6.800;2024-01-15T11:32:06;2.20;99.90
14614;DHT22;7393;51.446;6.800;2024-01-15T11:35:01;2.20;99.90
14614;DHT22;7393;51.446;6.800;2024-01-15T11:37:29;2.10;99.90
14614;DHT22;7393;51.446;6.800;2024-01-15T11:40:18;2.20;99.90
14614;DHT22;7393;51.446;6.800;2024-01-15T11:42:45;2.10;99.90
14614;DHT22;7393;51.446;6.800;2024-01-15T11:45:13;2.10;99.90
14614;DHT22;7393;51.446;6.800;2024-01-15T11:48:14;2.10;99.90
14614;DHT22;7393;51.446;6.800;2024-01-15T11:50:43;2.20;99.90
14614;DHT22;7393;51.446;6.800;2024-01-15T11:53:16;2.20;99.90
14614;DHT22;7393;51.446;6.800;2024-01-15T11:55:45;2.20;99.90
14614;DHT22;7393;51.446;6.800;2024-01-15T11:58:14;2.30;99.90
14614;DHT22;7393;51.446;6.800;2024-01-15T12:00:43;2.20;99.90
14614;DHT22;7393;51.446;6.800;2024-01-15T12:03:11;2.20;99.90
14614;DHT22;7393;51.446;6.800;2024-01-15T12:05:38;2.20;99.90
14614;DHT22;7393;51.446;6.800;2024-01-15T12:08:04;2.20;99.90
14614;DHT22;7393;51.446;6.800;2024-01-15T12:10:36;2.30;99.90
14614;DHT22;7393;51.446;6.800;2024-01-15T12:13:05;2.30;99.90
14614;DHT22;7393;51.446;6.800;2024-01-15T12:15:36;2.40;1.00
14614;DHT22;7393;51.446;6.800;2024-01-15T12:18:04;2.30;1.00
14614;DHT22;7393;51.446;6.800;2024-01-15T12:20:32;2.40;1.00
14614;DHT22;7393;51.446;6.800;2024-01-15T12:23:00;2.40;1.00
14614;DHT22;7393;51.446;6.800;2024-01-15T12:25:29;2.50;20.80
14614;DHT22;7393;51.446;6.800;2024-01-15T12:27:58;2.50;99.90
14614;DHT22;7393;51.446;6.800;2024-01-15T12:30:26;2.60;99.90
14614;DHT22;7393;51.446;6.800;2024-01-15T12:32:52;2.70;1.00
14614;DHT22;7393;51.446;6.800;2024-01-15T12:35:19;2.80;1.00
14614;DHT22;7393;51.446;6.800;2024-01-15T12:37:48;2.80;1.00
14614;DHT22;7393;51.446;6.800;2024-01-15T12:40:19;2.90;99.90
14614;DHT22;7393;51.446;6.800;2024-01-15T12:42:46;2.90;99.90
14614;DHT22;7393;51.446;6.800;2024-01-15T12:45:13;2.90;99.90
14614;DHT22;7393;51.446;6.800;2024-01-15T12:47:40;2.90;51.00
14614;DHT22;7393;51.446;6.800;2024-01-15T12:50:08;2.90;1.00
14614;DHT22;7393;51.446;6.800;2024-01-15T12:52:35;2.90;1.00
14614;DHT22;7393;51.446;6.800;2024-01-15T12:55:05;2.90;99.90
14614;DHT22;7393;51.446;6.800;2024-01-15T12:57:33;2.90;1.00
14614;DHT22;7393;51.446;6.800;2024-01-15T13:00:00;2.90;99.90
14614;DHT22;7393;51.446;6.800;2024-01-15T13:02:28;2.80;99.90
14614;DHT22;7393;51.446;6.800;2024-01-15T13:04:55;2.80;1.00
14614;DHT22;7393;51.446;6.800;2024-01-15T13:07:22;2.90;8.10
14614;DHT22;7393;51.446;6.800;2024-01-15T13:09:48;2.90;1.00
14614;DHT22;7393;51.446;6.800;2024-01-15T13:12:20;2.90;1.00
14614;DHT22;7393;51.446;6.800;2024-01-15T13:14:47;2.90;1.00
14614;DHT22;7393;51.446;6.800;2024-01-15T13:17:14;2.90;99.90
14614;DHT22;7393;51.446;6.800;2024-01-15T13:19:42;2.90;1.00
14614;DHT22;7393;51.446;6.800;2024-01-15T13:22:08;2.90;99.90
14614;DHT22;7393;51.446;6.800;2024-01-15T13:24:35;2.90;99.90
14614;DHT22;7393;51.446;6.800;2024-01-15T13:27:02;2.90;1.00
14614;DHT22;7393;51.446;6.800;2024-01-15T13:29:31;2.90;1.00
14614;DHT22;7393;51.446;6.800;2024-01-15T13:31:59;2.90;99.90
14614;DHT22;7393;51.446;6.800;2024-01-15T13:34:26;2.90;13.80
14614;DHT22;7393;51.446;6.800;2024-01-15T13:36:53;2.90;99.90
14614;DHT22;7393;51.446;6.800;2024-01-15T13:39:20;3.00;1.00
14614;DHT22;7393;51.446;6.800;2024-01-15T13:41:47;2.90;99.90
14614;DHT22;7393;51.446;6.800;2024-01-15T13:44:14;2.90;99.90
14614;DHT22;7393;51.446;6.800;2024-01-15T13:46:42;2.90;1.00
14614;DHT22;7393;51.446;6.800;2024-01-15T13:49:09;2.90;99.90
14614;DHT22;7393;51.446;6.800;2024-01-15T13:51:36;2.90;1.00
14614;DHT22;7393;51.446;6.800;2024-01-15T13:54:03;2.80;8.30
14614;DHT22;7393;51.446;6.800;2024-01-15T13:56:30;2.80;99.90
14614;DHT22;7393;51.446;6.800;2024-01-15T13:58:58;2.80;99.90
14614;DHT22;7393;51.446;6.800;2024-01-15T14:01:25;2.80;1.00
14614;DHT22;7393;51.446;6.800;2024-01-15T14:03:53;2.80;1.00
14614;DHT22;7393;51.446;6.800;2024-01-15T14:06:20;2.80;1.00
14614;DHT22;7393;51.446;6.800;2024-01-15T14:08:47;2.70;99.90
14614;DHT22;7393;51.446;6.800;2024-01-15T14:11:13;2.70;1.00
14614;DHT22;7393;51.446;6.800;2024-01-15T14:13:40;2.70;1.00
14614;DHT22;7393;51.446;6.800;2024-01-15T14:16:07;2.60;1.00
14614;DHT22;7393;51.446;6.800;2024-01-15T14:18:35;2.60;79.20
14614;DHT22;7393;51.446;6.800;2024-01-15T14:21:03;2.50;1.00
14614;DHT22;7393;51.446;6.800;2024-01-15T14:23:30;2.60;99.90
14614;DHT22;7393;51.446;6.800;2024-01-15T14:25:57;2.50;1.00
14614;DHT22;7393;51.446;6.800;2024-01-15T14:28:24;2.50;1.00
14614;DHT22;7393;51.446;6.800;2024-01-15T14:30:50;2.60;99.90
14614;DHT22;7393;51.446;6.800;2024-01-15T14:33:18;2.50;99.90
14614;DHT22;7393;51.446;6.800;2024-01-15T14:35:46;2.50;99.90
14614;DHT22;7393;51.446;6.800;2024-01-15T14:38:14;2.50;91.40
14614;DHT22;7393;51.446;6.800;2024-01-15T14:40:40;2.50;1.00
14614;DHT22;7393;51.446;6.800;2024-01-15T14:43:07;2.60;1.00
14614;DHT22;7393;51.446;6.800;2024-01-15T14:45:34;2.60;99.90
14614;DHT22;7393;51.446;6.800;2024-01-15T14:48:01;2.60;1.00
14614;DHT22;7393;51.446;6.800;2024-01-15T14:50:28;2.60;9.30
14614;DHT22;7393;51.446;6.800;2024-01-15T14:52:54;2.60;1.00
14614;DHT22;7393;51.446;6.800;2024-01-15T14:55:23;2.60;73.20
14614;DHT22;7393;51.446;6.800;2024-01-15T14:57:50;2.70;1.00
14614;DHT22;7393;51.446;6.800;2024-01-15T15:00:18;2.60;57.50
14614;DHT22;7393;51.446;6.800;2024-01-15T15:02:45;2.60;99.90
14614;DHT22;7393;51.446;6.800;2024-01-15T15:05:12;2.60;1.00
14614;DHT22;7393;51.446;6.800;2024-01-15T15:07:42;2.60;99.90
14614;DHT22;7393;51.446;6.800;2024-01-15T15:10:09;2.60;1.00
14614;DHT22;7393;51.446;6.800;2024-01-15T15:12:38;2.60;1.00
14614;DHT22;7393;51.446;6.800;2024-01-15T15:15:05;2.60;1.00
14614;DHT22;7393;51.446;6.800;2024-01-15T15:17:32;2.50;99.90
14614;DHT22;7393;51.446;6.800;2024-01-15T15:20:00;2.50;1.00
14614;DHT22;7393;51.446;6.800;2024-01-15T15:22:28;2.50;1.00
14614;DHT22;7393;51.446;6.800;2024-01-15T15:24:54;2.50;1.00
14614;DHT22;7393;51.446;6.800;2024-01-15T15:27:21;2.50;1.00
14614;DHT22;7393;51.446;6.800;2024-01-15T15:29:49;2.50;99.90
14614;DHT22;7393;51.446;6.800;2024-01-15T15:32:16;2.40;99.90
14614;DHT22;7393;51.446;6.800;2024-01-15T15:34:43;2.50;1.00
14614;DHT22;7393;51.446;6.800;2024-01-15T15:37:10;2.40;70.60
14614;DHT22;7393;51.446;6.800;2024-01-15T15:39:38;2.40;1.00
14614;DHT22;7393;51.446;6.800;2024-01-15T15:42:05;2.40;1.00
14614;DHT22;7393;51.446;6.800;2024-01-15T15:44:32;2.50;99.90
14614;DHT22;7393;51.446;6.800;2024-01-15T15:47:00;2.30;1.00
14614;DHT22;7393;51.446;6.800;2024-01-15T15:49:28;2.40;1.00
14614;DHT22;7393;51.446;6.800;2024-01-15T15:51:56;2.40;1.00
14614;DHT22;7393;51.446;6.800;2024-01-15T15:54:23;2.40;1.00
14614;DHT22;7393;51.446;6.800;2024-01-15T15:56:50;2.40;99.90
14614;DHT22;7393;51.446;6.800;2024-01-15T15:59:17;2.40;99.90
14614;DHT22;7393;51.446;6.800;2024-01-15T16:01:47;2.30;1.00
14614;DHT22;7393;51.446;6.800;2024-01-15T16:04:16;2.30;1.00
14614;DHT22;7393;51.446;6.800;2024-01-15T16:06:43;2.30;1.00
14614;DHT22;7393;51.446;6.800;2024-01-15T16:09:12;2.20;86.30
14614;DHT22;7393;51.446;6.800;2024-01-15T16:11:39;2.20;99.90